Time;durP1;ratioP1;P1;durP2;ratioP2;P2;SDS_P1;SDS_P2;PMS_P1;PMS_P2;Temp;Humidity;BMP_temperature;BMP_pressure;BME280_temperature;BME280_humidity;BME280_pressure;Samples;Min_cycle;Max_cycle;Signal;HPM_P1;HPM_P2
2023/08/18 00:00:45;;;;;;;7.68;7.07;;;;;;;;;;10151907;28;20693;-69
2023/08/18 00:05:42;;;;;;;8.70;8.00;;;;;;;;;;10155634;28;20046;-68
2023/08/18 00:10:38;;;;;;;8.63;8.02;;;;;;;;;;10153501;28;20042;-69
2023/08/18 00:15:35;;;;;;;8.00;7.20;;;;;;;;;;10158589;28;20519;-70
2023/08/18 00:20:31;;;;;;;8.75;7.85;;;;;;;;;;10151718;28;20061;-70
2023/08/18 00:25:27;;;;;;;8.40;7.80;;;;;;;;;;10148020;28;20104;-70
2023/08/18 00:30:24;;;;;;;8.25;7.43;;;;;;;;;;10156697;28;20042;-69
2023/08/18 00:35:21;;;;;;;13.82;7.50;;;;;;;;;;10148090;28;20145;-68
2023/08/18 00:40:17;;;;;;;9.57;8.07;;;;;;;;;;10145857;28;20050;-69
2023/08/18 00:45:13;;;;;;;7.40;6.80;;;;;;;;;;10153992;28;20057;-69
2023/08/18 00:50:11;;;;;;;7.03;6.45;;;;;;;;;;10158973;28;20066;-69
2023/08/18 00:55:08;;;;;;;9.15;7.00;;;;;;;;;;10151546;28;20054;-69
2023/08/18 01:00:04;;;;;;;8.30;7.70;;;;;;;;;;10153943;28;20109;-69
2023/08/18 01:05:01;;;;;;;8.75;7.85;;;;;;;;;;10151003;28;20463;-69
2023/08/18 01:09:57;;;;;;;8.80;8.02;;;;;;;;;;10155105;28;20504;-70
2023/08/18 01:15:00;;;;;;;8.23;7.53;;;;;;;;;;10151244;28;20046;-70
2023/08/18 01:19:56;;;;;;;12.10;8.60;;;;;;;;;;10148692;28;20046;-70
2023/08/18 01:25:00;;;;;;;7.32;6.72;;;;;;;;;;10151283;28;20047;-70
2023/08/18 01:29:56;;;;;;;8.43;7.45;;;;;;;;;;10149195;28;20698;-70
2023/08/18 01:34:53;;;;;;;11.57;8.50;;;;;;;;;;10157195;28;20046;-69
2023/08/18 01:39:50;;;;;;;8.25;7.55;;;;;;;;;;10151296;28;20055;-69
2023/08/18 01:44:46;;;;;;;8.52;7.78;;;;;;;;;;10151375;28;20127;-69
2023/08/18 01:49:42;;;;;;;8.07;7.30;;;;;;;;;;10138055;28;20042;-69
2023/08/18 01:54:38;;;;;;;8.45;7.65;;;;;;;;;;10153173;28;20078;-69
2023/08/18 01:59:35;;;;;;;8.27;7.68;;;;;;;;;;10136098;28;20050;-69
2023/08/18 02:04:31;;;;;;;8.82;8.02;;;;;;;;;;10144998;28;20488;-69
2023/08/18 02:09:27;;;;;;;9.93;8.38;;;;;;;;;;10143133;28;20065;-69
2023/08/18 02:14:24;;;;;;;8.93;8.02;;;;;;;;;;10144085;28;20081;-69
2023/08/18 02:19:20;;;;;;;9.55;8.63;;;;;;;;;;10142809;28;20696;-69
2023/08/18 02:24:16;;;;;;;12.05;8.73;;;;;;;;;;10144204;28;20590;-68
2023/08/18 02:29:12;;;;;;;9.60;8.80;;;;;;;;;;10142177;28;20093;-68
2023/08/18 02:34:09;;;;;;;9.43;8.60;;;;;;;;;;10148096;28;21946;-68
2023/08/18 02:39:05;;;;;;;9.63;8.73;;;;;;;;;;10136059;28;20498;-68
2023/08/18 02:44:03;;;;;;;10.23;9.27;;;;;;;;;;10140270;28;20440;-68
2023/08/18 02:48:59;;;;;;;11.80;9.35;;;;;;;;;;10134684;28;20065;-69
2023/08/18 02:53:56;;;;;;;10.50;9.50;;;;;;;;;;10123441;28;20097;-69
2023/08/18 02:58:52;;;;;;;10.20;9.20;;;;;;;;;;10141571;28;20416;-69
2023/08/18 03:03:49;;;;;;;11.40;10.00;;;;;;;;;;10131298;28;20572;-69
2023/08/18 03:08:45;;;;;;;13.98;10.80;;;;;;;;;;10138876;28;20041;-69
2023/08/18 03:13:41;;;;;;;10.68;9.43;;;;;;;;;;10128210;28;20563;-69
2023/08/18 03:18:38;;;;;;;11.55;10.55;;;;;;;;;;10142190;28;20074;-69
2023/08/18 03:23:34;;;;;;;11.77;10.63;;;;;;;;;;10139961;28;20421;-69
2023/08/18 03:28:31;;;;;;;11.20;10.25;;;;;;;;;;10135941;28;20082;-68
2023/08/18 03:33:28;;;;;;;11.70;10.63;;;;;;;;;;10152375;28;20055;-70
2023/08/18 03:38:24;;;;;;;11.80;10.90;;;;;;;;;;10147072;28;20046;-69
2023/08/18 03:43:21;;;;;;;11.27;10.48;;;;;;;;;;10145512;28;20046;-69
2023/08/18 03:48:17;;;;;;;12.15;11.00;;;;;;;;;;10148570;28;20543;-69
2023/08/18 03:53:14;;;;;;;15.35;10.73;;;;;;;;;;10142888;28;20054;-69
2023/08/18 03:58:10;;;;;;;11.63;10.52;;;;;;;;;;10148561;28;20479;-69
2023/08/18 04:03:07;;;;;;;12.65;10.85;;;;;;;;;;10144081;28;20042;-69
2023/08/18 04:08:03;;;;;;;12.32;11.18;;;;;;;;;;10140654;28;20038;-69
2023/08/18 04:12:59;;;;;;;12.18;11.10;;;;;;;;;;10138933;28;20042;-69
2023/08/18 04:17:56;;;;;;;12.88;11.57;;;;;;;;;;10141733;28;20542;-68
2023/08/18 04:22:52;;;;;;;14.60;11.35;;;;;;;;;;10151734;28;20040;-68
2023/08/18 04:27:49;;;;;;;14.23;11.82;;;;;;;;;;10127018;28;20605;-68
2023/08/18 04:32:49;;;;;;;12.55;11.15;;;;;;;;;;10145222;28;20063;-73
2023/08/18 04:37:45;;;;;;;14.55;11.88;;;;;;;;;;10137443;28;20069;-73
2023/08/18 04:42:42;;;;;;;13.60;12.18;;;;;;;;;;10141705;28;20042;-73
2023/08/18 04:47:40;;;;;;;15.63;13.23;;;;;;;;;;10144369;28;20090;-74
2023/08/18 04:52:36;;;;;;;13.75;12.43;;;;;;;;;;10162439;23;20050;-73
2023/08/18 04:57:32;;;;;;;17.33;13.02;;;;;;;;;;10141865;28;20450;-73
2023/08/18 05:02:28;;;;;;;15.27;13.57;;;;;;;;;;10134916;28;20509;-74
2023/08/18 05:07:26;;;;;;;15.70;14.27;;;;;;;;;;10142872;28;20046;-73
2023/08/18 05:12:22;;;;;;;14.95;13.45;;;;;;;;;;10158110;28;20058;-73
2023/08/18 05:17:19;;;;;;;17.15;15.40;;;;;;;;;;10123021;28;20073;-73
2023/08/18 05:22:22;;;;;;;17.85;16.02;;;;;;;;;;10211747;22;20084;-73
2023/08/18 05:27:19;;;;;;;16.25;14.02;;;;;;;;;;10225345;28;20053;-73
2023/08/18 05:43:57;;;;;;;22.40;16.10;;;;;;;;;;10226644;28;20068;-73
2023/08/18 05:48:53;;;;;;;16.17;14.65;;;;;;;;;;10222212;28;20054;-73
2023/08/18 05:53:50;;;;;;;16.52;14.57;;;;;;;;;;10181901;28;20053;-73
2023/08/18 06:39:32;;;;;;;;;;;;;;;;;;;;;
2023/08/18 06:45:27;;;;;;;16.50;15.00;;;;;;;;;;10120712;28;20551;-74
2023/08/18 06:50:23;;;;;;;16.20;14.60;;;;;;;;;;10201138;28;20058;-73
2023/08/18 06:55:20;;;;;;;20.50;18.08;;;;;;;;;;10223663;28;20483;-73
2023/08/18 07:00:25;;;;;;;19.02;17.42;;;;;;;;;;10221949;28;20065;-74
2023/08/18 07:05:23;;;;;;;21.45;16.88;;;;;;;;;;10222844;28;20068;-74
2023/08/18 07:10:20;;;;;;;17.70;15.70;;;;;;;;;;10210616;28;20053;-74
2023/08/18 07:15:16;;;;;;;16.95;15.27;;;;;;;;;;10222841;28;20764;-72
2023/08/18 07:20:14;;;;;;;16.75;15.25;;;;;;;;;;10222860;28;20049;-73
2023/08/18 07:25:10;;;;;;;18.10;16.40;;;;;;;;;;10210193;28;20572;-73
2023/08/18 07:30:07;;;;;;;19.52;16.13;;;;;;;;;;10228238;28;20053;-72
2023/08/18 07:35:08;;;;;;;18.02;16.13;;;;;;;;;;10210156;28;20049;-73
2023/08/18 07:40:09;;;;;;;17.20;15.60;;;;;;;;;;10217470;28;20487;-73
2023/08/18 07:45:06;;;;;;;18.95;17.00;;;;;;;;;;10228789;28;20050;-73
2023/08/18 07:50:03;;;;;;;17.65;15.85;;;;;;;;;;10226061;28;20458;-73
2023/08/18 07:55:00;;;;;;;17.40;15.90;;;;;;;;;;10225142;28;20634;-73
2023/08/18 07:59:57;;;;;;;17.10;15.43;;;;;;;;;;10224634;28;20038;-73
2023/08/18 08:04:53;;;;;;;17.88;16.20;;;;;;;;;;10219864;28;20041;-72
2023/08/18 08:09:49;;;;;;;18.42;16.55;;;;;;;;;;10229147;28;20053;-73
2023/08/18 08:14:46;;;;;;;17.77;16.17;;;;;;;;;;10225116;28;20096;-73
2023/08/18 08:19:42;;;;;;;16.70;15.00;;;;;;;;;;10238945;28;20415;-73
2023/08/18 08:24:38;;;;;;;16.05;14.65;;;;;;;;;;10235341;28;20048;-73
2023/08/18 08:29:35;;;;;;;17.27;15.68;;;;;;;;;;10227233;28;20478;-73
2023/08/18 08:34:31;;;;;;;17.58;15.98;;;;;;;;;;10231306;28;20102;-73
2023/08/18 08:39:27;;;;;;;18.88;17.05;;;;;;;;;;10222437;28;20052;-72
2023/08/18 08:44:24;;;;;;;15.55;14.07;;;;;;;;;;10222779;28;20053;-73
2023/08/18 08:49:23;;;;;;;16.52;14.93;;;;;;;;;;10227732;28;20733;-73
2023/08/18 08:54:23;;;;;;;14.95;13.60;;;;;;;;;;10233025;28;20132;-72
2023/08/18 08:59:20;;;;;;;17.65;15.88;;;;;;;;;;10231846;28;20123;-73
2023/08/18 09:04:16;;;;;;;16.55;15.15;;;;;;;;;;10224832;28;20065;-73
2023/08/18 09:09:14;;;;;;;16.60;15.20;;;;;;;;;;10223322;28;20083;-72
2023/08/18 09:14:10;;;;;;;17.38;15.73;;;;;;;;;;10223913;28;20083;-72
2023/08/18 09:24:43;;;;;;;16.83;14.68;;;;;;;;;;10068517;26;20121;-73
2023/08/18 09:30:09;;;;;;;16.67;15.00;;;;;;;;;;10181185;28;20411;-74
2023/08/18 09:42:02;;;;;;;13.10;11.80;;;;;;;;;;10191648;28;20132;-74
2023/08/18 09:47:50;;;;;;;;;;;;;;;;;;;;;
2023/08/18 09:53:15;;;;;;;14.15;12.50;;;;;;;;;;10084287;28;20641;-73
2023/08/18 09:58:30;;;;;;;12.88;11.65;;;;;;;;;;10083224;28;20047;-73
2023/08/18 10:03:26;;;;;;;13.20;11.80;;;;;;;;;;10092334;28;20047;-73
2023/08/18 10:08:23;;;;;;;11.05;9.95;;;;;;;;;;10075665;28;20417;-74
2023/08/18 10:13:20;;;;;;;9.93;8.93;;;;;;;;;;10079875;28;20117;-73
2023/08/18 10:23:48;;;;;;;10.95;9.95;;;;;;;;;;2786603;26;20076;-73
2023/08/18 10:28:45;;;;;;;11.98;11.02;;;;;;;;;;10277816;28;20044;-74
2023/08/18 10:33:43;;;;;;;17.13;13.30;;;;;;;;;;10285930;28;20041;-73
2023/08/18 10:38:40;;;;;;;13.10;11.88;;;;;;;;;;10261214;28;20049;-73
2023/08/18 10:43:47;;;;;;;13.30;12.07;;;;;;;;;;10275990;28;20103;-73
2023/08/18 10:48:45;;;;;;;12.43;11.25;;;;;;;;;;10279023;28;20451;-73
2023/08/18 10:53:41;;;;;;;11.95;10.65;;;;;;;;;;10268640;28;20227;-73
2023/08/18 10:58:38;;;;;;;10.95;9.93;;;;;;;;;;10294286;28;20478;-74
2023/08/18 11:03:35;;;;;;;13.25;11.18;;;;;;;;;;10260582;28;20068;-72
2023/08/18 11:08:31;;;;;;;11.20;10.10;;;;;;;;;;10258505;28;20510;-72
2023/08/18 11:13:28;;;;;;;12.23;11.13;;;;;;;;;;10243045;28;20110;-72
2023/08/18 11:24:05;;;;;;;;;;;;;;;;;;;;;
2023/08/18 11:34:34;;;;;;;12.50;11.50;;;;;;;;;;6796895;26;20040;-73
2023/08/18 11:39:30;;;;;;;10.60;9.60;;;;;;;;;;10392287;28;20648;-73
2023/08/18 11:44:27;;;;;;;10.93;9.82;;;;;;;;;;10392208;28;20455;-72
2023/08/18 11:49:24;;;;;;;10.48;9.48;;;;;;;;;;10378865;28;20122;-72
2023/08/18 11:54:20;;;;;;;10.35;9.23;;;;;;;;;;10396293;27;20088;-73
2023/08/18 11:59:26;;;;;;;13.07;11.27;;;;;;;;;;10413337;22;20118;-73
2023/08/18 12:04:41;;;;;;;12.80;9.85;;;;;;;;;;10223086;28;20049;-72
2023/08/18 12:09:37;;;;;;;12.10;10.85;;;;;;;;;;10293864;28;20048;-73
2023/08/18 12:14:33;;;;;;;11.85;10.65;;;;;;;;;;10298729;28;20447;-74
2023/08/18 12:19:31;;;;;;;11.65;9.90;;;;;;;;;;10290826;28;20045;-73
2023/08/18 12:24:29;;;;;;;12.10;9.63;;;;;;;;;;10315175;28;20065;-73
2023/08/18 12:29:25;;;;;;;11.93;10.77;;;;;;;;;;10311642;28;20049;-74
2023/08/18 12:34:21;;;;;;;10.65;9.63;;;;;;;;;;10289060;28;20511;-74
2023/08/18 12:39:18;;;;;;;9.73;8.70;;;;;;;;;;10302285;28;20044;-72
2023/08/18 12:44:14;;;;;;;10.43;9.32;;;;;;;;;;10295861;28;20061;-73
2023/08/18 12:49:10;;;;;;;11.55;10.55;;;;;;;;;;10310536;28;20048;-73
2023/08/18 12:54:07;;;;;;;11.38;10.38;;;;;;;;;;10295763;28;20518;-73
2023/08/18 12:59:03;;;;;;;11.40;10.30;;;;;;;;;;10295262;28;20506;-73
2023/08/18 13:04:00;;;;;;;11.85;10.63;;;;;;;;;;10305864;28;20044;-73
2023/08/18 13:08:56;;;;;;;12.18;10.98;;;;;;;;;;10295697;28;20056;-73
2023/08/18 13:13:52;;;;;;;11.70;10.70;;;;;;;;;;10281610;28;20049;-73
2023/08/18 13:18:49;;;;;;;11.95;10.85;;;;;;;;;;10284553;28;20098;-73
2023/08/18 13:23:45;;;;;;;11.27;10.18;;;;;;;;;;10298419;28;20419;-74
2023/08/18 13:28:42;;;;;;;11.98;10.88;;;;;;;;;;10288239;28;20510;-74
2023/08/18 13:33:53;;;;;;;11.98;10.98;;;;;;;;;;10294671;28;20177;-75
2023/08/18 13:39:28;;;;;;;11.88;10.77;;;;;;;;;;10274297;28;20040;-73
2023/08/18 13:44:24;;;;;;;10.63;9.73;;;;;;;;;;10294875;28;20559;-73
2023/08/18 13:49:20;;;;;;;11.02;10.13;;;;;;;;;;10285663;28;20117;-74
2023/08/18 13:54:17;;;;;;;11.63;10.45;;;;;;;;;;10299460;28;20052;-73
2023/08/18 13:59:13;;;;;;;12.60;10.80;;;;;;;;;;10296752;28;20049;-73
2023/08/18 14:04:09;;;;;;;12.07;10.95;;;;;;;;;;10292682;28;20079;-74
2023/08/18 14:09:06;;;;;;;12.23;11.05;;;;;;;;;;10298340;28;20514;-74
2023/08/18 14:14:02;;;;;;;12.40;11.18;;;;;;;;;;10298446;28;20048;-74
2023/08/18 14:18:59;;;;;;;10.45;9.65;;;;;;;;;;10302524;28;20118;-74
2023/08/18 14:23:55;;;;;;;11.68;10.75;;;;;;;;;;10294343;28;20521;-74
2023/08/18 14:28:51;;;;;;;11.65;10.65;;;;;;;;;;10296092;28;20049;-73
2023/08/18 14:33:48;;;;;;;11.30;10.40;;;;;;;;;;10302695;28;20049;-73
2023/08/18 14:38:44;;;;;;;10.80;9.98;;;;;;;;;;10289482;28;20052;-73
2023/08/18 14:43:41;;;;;;;10.45;9.65;;;;;;;;;;10294940;28;20086;-73
2023/08/18 14:48:38;;;;;;;12.57;11.57;;;;;;;;;;10287721;28;20056;-72
2023/08/18 14:53:36;;;;;;;12.63;11.63;;;;;;;;;;10295840;28;20064;-72
2023/08/18 14:58:32;;;;;;;14.15;12.27;;;;;;;;;;10297149;28;20049;-73
2023/08/18 15:03:28;;;;;;;11.20;10.30;;;;;;;;;;10291633;28;20044;-73
2023/08/18 15:08:25;;;;;;;13.25;12.05;;;;;;;;;;10292927;28;20098;-73
2023/08/18 15:13:21;;;;;;;12.65;11.55;;;;;;;;;;10290631;28;20117;-73
2023/08/18 15:18:18;;;;;;;14.48;12.98;;;;;;;;;;10283789;28;20041;-73
2023/08/18 15:23:14;;;;;;;13.57;12.32;;;;;;;;;;10298771;28;20414;-73
2023/08/18 15:28:10;;;;;;;12.93;11.82;;;;;;;;;;10285589;28;20053;-72
2023/08/18 15:33:07;;;;;;;13.82;12.43;;;;;;;;;;10283267;28;20052;-73
2023/08/18 15:38:05;;;;;;;14.90;13.52;;;;;;;;;;10281885;28;20593;-73
2023/08/18 15:43:02;;;;;;;15.00;12.50;;;;;;;;;;10293248;28;20847;-73
2023/08/18 15:47:58;;;;;;;13.65;12.45;;;;;;;;;;10289181;28;20110;-73
2023/08/18 15:52:54;;;;;;;13.15;11.82;;;;;;;;;;10286583;28;20045;-72
2023/08/18 15:57:50;;;;;;;13.07;11.98;;;;;;;;;;10304728;28;20094;-72
2023/08/18 16:02:47;;;;;;;13.63;12.40;;;;;;;;;;10292801;28;20068;-73
2023/08/18 16:07:43;;;;;;;13.18;12.00;;;;;;;;;;10288421;28;20131;-73
2023/08/18 16:12:40;;;;;;;13.05;11.85;;;;;;;;;;10286863;28;20051;-73
2023/08/18 16:17:36;;;;;;;12.27;11.15;;;;;;;;;;10293510;28;20045;-73
2023/08/18 16:27:45;;;;;;;11.90;10.02;;;;;;;;;;10433972;22;20406;-73
2023/08/18 16:32:42;;;;;;;11.90;10.30;;;;;;;;;;10319212;28;20157;-73
2023/08/18 16:37:38;;;;;;;10.52;9.23;;;;;;;;;;10312066;28;20056;-73
2023/08/18 16:42:35;;;;;;;11.20;9.82;;;;;;;;;;10318981;28;20083;-73
2023/08/18 16:47:31;;;;;;;10.80;9.70;;;;;;;;;;10295738;28;20053;-73
2023/08/18 16:52:28;;;;;;;10.43;9.43;;;;;;;;;;10323288;28;20040;-73
2023/08/18 16:57:24;;;;;;;12.60;9.75;;;;;;;;;;10329356;28;20480;-72
2023/08/18 17:02:21;;;;;;;10.02;9.07;;;;;;;;;;10298826;28;20070;-73
2023/08/18 17:07:17;;;;;;;10.57;9.43;;;;;;;;;;10320322;28;20105;-73
2023/08/18 17:12:13;;;;;;;11.95;10.43;;;;;;;;;;10323778;28;20505;-72
2023/08/18 17:17:11;;;;;;;13.82;10.52;;;;;;;;;;10323034;28;20544;-72
2023/08/18 17:22:07;;;;;;;10.57;9.60;;;;;;;;;;10296480;28;20110;-72
2023/08/18 17:27:04;;;;;;;11.00;9.27;;;;;;;;;;10315009;28;20056;-73
2023/08/18 17:32:03;;;;;;;11.43;9.35;;;;;;;;;;10316293;28;20056;-72
2023/08/18 17:36:59;;;;;;;9.15;8.25;;;;;;;;;;10332619;28;20048;-72
2023/08/18 17:41:55;;;;;;;8.98;8.07;;;;;;;;;;10303264;28;20051;-73
2023/08/18 17:46:52;;;;;;;9.25;8.35;;;;;;;;;;10325363;28;20118;-72
2023/08/18 17:51:48;;;;;;;11.05;9.43;;;;;;;;;;10354526;22;20096;-73
2023/08/18 17:56:45;;;;;;;9.10;8.05;;;;;;;;;;10386004;28;20044;-73
2023/08/18 18:01:41;;;;;;;13.27;9.00;;;;;;;;;;10390679;28;20076;-73
2023/08/18 18:06:37;;;;;;;10.30;8.45;;;;;;;;;;10366600;28;20058;-73
2023/08/18 18:11:34;;;;;;;9.68;8.60;;;;;;;;;;10353507;28;20044;-73
2023/08/18 18:16:30;;;;;;;8.88;7.93;;;;;;;;;;10377689;28;20448;-73
2023/08/18 18:21:28;;;;;;;11.95;9.70;;;;;;;;;;10376620;28;20036;-73
2023/08/18 18:26:27;;;;;;;10.82;9.38;;;;;;;;;;10374175;28;20463;-73
2023/08/18 18:31:56;;;;;;;12.65;9.00;;;;;;;;;;10340102;22;20040;-73
2023/08/18 18:37:22;;;;;;;11.95;10.23;;;;;;;;;;10284425;28;20107;-73
2023/08/18 18:42:19;;;;;;;11.60;8.77;;;;;;;;;;10284797;28;20111;-73
2023/08/18 18:47:15;;;;;;;15.48;9.98;;;;;;;;;;10298466;28;20553;-72
2023/08/18 18:52:12;;;;;;;11.93;9.82;;;;;;;;;;10264193;28;20045;-73
2023/08/18 18:57:08;;;;;;;15.75;9.52;;;;;;;;;;10307097;28;20072;-73
2023/08/18 19:02:05;;;;;;;10.07;8.98;;;;;;;;;;10280461;28;20383;-73
2023/08/18 19:07:02;;;;;;;14.65;10.32;;;;;;;;;;10295992;28;20061;-73
2023/08/18 19:11:59;;;;;;;13.85;11.82;;;;;;;;;;10285379;28;20051;-73
2023/08/18 19:16:56;;;;;;;11.93;10.50;;;;;;;;;;10289524;28;20057;-72
2023/08/18 19:21:52;;;;;;;13.52;11.05;;;;;;;;;;10298069;28;20399;-72
2023/08/18 19:26:49;;;;;;;13.63;9.68;;;;;;;;;;10278117;28;20386;-73
2023/08/18 19:31:45;;;;;;;12.70;11.32;;;;;;;;;;10302450;28;20048;-72
2023/08/18 19:36:43;;;;;;;16.17;10.98;;;;;;;;;;10288282;28;20057;-72
2023/08/18 19:41:40;;;;;;;12.75;11.43;;;;;;;;;;10298953;28;20044;-72
2023/08/18 19:46:38;;;;;;;16.48;10.82;;;;;;;;;;10296605;28;20049;-72
2023/08/18 19:51:35;;;;;;;13.80;11.13;;;;;;;;;;10299787;28;20067;-72
2023/08/18 19:56:31;;;;;;;17.67;12.15;;;;;;;;;;10291657;28;20056;-72
2023/08/18 20:01:27;;;;;;;14.45;12.02;;;;;;;;;;10275052;28;20569;-73
2023/08/18 20:06:24;;;;;;;16.30;12.65;;;;;;;;;;10291867;28;20055;-72
2023/08/18 20:11:20;;;;;;;15.15;12.23;;;;;;;;;;10289658;28;20049;-72
2023/08/18 20:16:16;;;;;;;12.63;10.93;;;;;;;;;;10302487;28;20040;-72
2023/08/18 20:21:36;;;;;;;13.60;12.20;;;;;;;;;;10355110;22;20493;-72
2023/08/18 20:27:30;;;;;;;13.05;11.65;;;;;;;;;;10204492;28;20046;-72
2023/08/18 20:32:59;;;;;;;15.85;14.25;;;;;;;;;;10178654;28;20063;-72
2023/08/18 20:38:06;;;;;;;13.27;11.88;;;;;;;;;;10206039;28;20046;-72
2023/08/18 20:43:26;;;;;;;17.50;14.52;;;;;;;;;;10206287;28;20494;-72
2023/08/18 20:49:12;;;;;;;15.80;14.02;;;;;;;;;;10135126;28;20050;-73
2023/08/18 20:54:07;;;;;;;16.73;15.07;;;;;;;;;;10144615;28;20049;-72
2023/08/18 20:59:05;;;;;;;14.65;12.75;;;;;;;;;;10194265;28;20046;-72
2023/08/18 21:04:03;;;;;;;16.42;13.30;;;;;;;;;;10379721;27;20055;-72
2023/08/18 21:09:00;;;;;;;13.68;12.30;;;;;;;;;;10393244;27;20535;-72
2023/08/18 21:13:56;;;;;;;16.55;14.27;;;;;;;;;;10399461;27;20517;-73
2023/08/18 21:18:52;;;;;;;15.27;13.75;;;;;;;;;;10381839;27;20040;-72
2023/08/18 21:23:48;;;;;;;13.82;12.60;;;;;;;;;;10384885;27;20055;-72
2023/08/18 21:28:45;;;;;;;16.40;13.52;;;;;;;;;;10390840;27;20063;-73
2023/08/18 21:33:41;;;;;;;14.43;13.00;;;;;;;;;;10391614;27;20132;-73
2023/08/18 21:38:37;;;;;;;14.90;13.20;;;;;;;;;;10383023;27;20470;-74
2023/08/18 21:43:34;;;;;;;15.82;14.05;;;;;;;;;;10394472;27;20039;-72
2023/08/18 21:48:30;;;;;;;13.88;12.55;;;;;;;;;;10399580;27;20398;-72
2023/08/18 21:53:26;;;;;;;14.38;12.90;;;;;;;;;;10388545;27;20180;-73
2023/08/18 21:58:23;;;;;;;15.52;14.13;;;;;;;;;;10395749;27;20047;-74
2023/08/18 22:03:19;;;;;;;17.15;13.32;;;;;;;;;;10391406;28;20047;-73
2023/08/18 22:08:16;;;;;;;14.68;13.20;;;;;;;;;;10381719;27;20061;-72
2023/08/18 22:13:12;;;;;;;14.85;13.43;;;;;;;;;;10395134;27;20104;-74
2023/08/18 22:18:08;;;;;;;16.10;14.57;;;;;;;;;;10392183;27;20043;-71
2023/08/18 22:23:05;;;;;;;14.23;12.82;;;;;;;;;;10393225;27;20048;-71
2023/08/18 22:28:01;;;;;;;15.63;14.13;;;;;;;;;;10388326;28;20035;-73
2023/08/18 22:32:58;;;;;;;14.38;12.93;;;;;;;;;;10399319;27;20066;-74
2023/08/18 22:37:54;;;;;;;13.85;12.45;;;;;;;;;;10393038;27;20046;-73
2023/08/18 22:42:51;;;;;;;14.75;13.38;;;;;;;;;;10376038;27;20071;-74
2023/08/18 22:47:47;;;;;;;16.83;13.63;;;;;;;;;;10396324;27;20043;-74
2023/08/18 22:52:43;;;;;;;14.02;12.70;;;;;;;;;;10395927;27;20048;-74
2023/08/18 22:57:40;;;;;;;15.27;13.77;;;;;;;;;;10380708;27;20078;-74
2023/08/18 23:02:36;;;;;;;15.10;13.60;;;;;;;;;;10396756;27;20075;-74
2023/08/18 23:07:33;;;;;;;15.98;14.50;;;;;;;;;;10389853;27;20047;-74
2023/08/18 23:12:31;;;;;;;18.60;13.45;;;;;;;;;;10407595;27;20055;-74
2023/08/18 23:17:27;;;;;;;15.50;14.15;;;;;;;;;;10378644;27;20498;-74
2023/08/18 23:22:25;;;;;;;16.70;14.30;;;;;;;;;;10375209;27;20079;-74
2023/08/18 23:27:21;;;;;;;17.92;16.15;;;;;;;;;;10385484;28;20067;-74
2023/08/18 23:32:17;;;;;;;17.90;16.10;;;;;;;;;;10390348;28;20074;-74
2023/08/18 23:37:14;;;;;;;15.73;14.35;;;;;;;;;;10385409;28;20047;-74
2023/08/18 23:42:11;;;;;;;15.15;13.85;;;;;;;;;;10385761;28;20096;-74
2023/08/18 23:47:07;;;;;;;13.90;12.82;;;;;;;;;;10389602;27;20108;-74
2023/08/18 23:52:03;;;;;;;15.05;13.82;;;;;;;;;;10404726;27;20044;-73
2023/08/18 23:57:03;;;;;;;14.95;13.75;;;;;;;;;;10392782;27;20073;-73
